sensor_id;sensor_type;location;lat;lon;timestamp;temperature;humidity
10964;DHT22;5534;48.784;9.190;2022-07-06T00:02:08;22.70;90.80
10964;DHT22;5534;48.784;9.190;2022-07-06T00:04:33;22.60;90.70
10964;DHT22;5534;48.784;9.190;2022-07-06T00:06:59;22.60;90.90
10964;DHT22;5534;48.784;9.190;2022-07-06T00:09:25;22.60;91.00
10964;DHT22;5534;48.784;9.190;2022-07-06T00:11:51;22.60;90.80
10964;DHT22;5534;48.784;9.190;2022-07-06T00:14:17;22.60;90.60
10964;DHT22;5534;48.784;9.190;2022-07-06T00:16:42;22.60;90.70
10964;DHT22;5534;48.784;9.190;2022-07-06T00:19:08;22.40;90.90
10964;DHT22;5534;48.784;9.190;2022-07-06T00:21:34;22.40;91.20
10964;DHT22;5534;48.784;9.190;2022-07-06T00:24:00;22.40;91.30
10964;DHT22;5534;48.784;9.190;2022-07-06T00:26:26;22.30;91.40
10964;DHT22;5534;48.784;9.190;2022-07-06T00:28:52;22.30;91.40
10964;DHT22;5534;48.784;9.190;2022-07-06T00:31:18;22.30;91.50
10964;DHT22;5534;48.784;9.190;2022-07-06T00:33:43;22.30;91.50
10964;DHT22;5534;48.784;9.190;2022-07-06T00:36:09;22.40;91.40
10964;DHT22;5534;48.784;9.190;2022-07-06T00:38:35;22.30;91.50
10964;DHT22;5534;48.784;9.190;2022-07-06T00:41:01;22.30;91.40
10964;DHT22;5534;48.784;9.190;2022-07-06T00:43:27;22.30;91.40
10964;DHT22;5534;48.784;9.190;2022-07-06T00:45:52;22.30;91.60
10964;DHT22;5534;48.784;9.190;2022-07-06T00:48:18;22.20;91.60
10964;DHT22;5534;48.784;9.190;2022-07-06T00:50:44;22.20;91.60
10964;DHT22;5534;48.784;9.190;2022-07-06T00:53:10;22.20;91.70
10964;DHT22;5534;48.784;9.190;2022-07-06T00:55:39;22.30;91.60
10964;DHT22;5534;48.784;9.190;2022-07-06T00:58:06;22.00;91.70
10964;DHT22;5534;48.784;9.190;2022-07-06T01:00:32;22.20;91.60
10964;DHT22;5534;48.784;9.190;2022-07-06T01:02:58;22.20;91.50
10964;DHT22;5534;48.784;9.190;2022-07-06T01:05:24;22.20;91.60
10964;DHT22;5534;48.784;9.190;2022-07-06T01:07:51;22.10;91.50
10964;DHT22;5534;48.784;9.190;2022-07-06T01:10:20;22.10;91.60
10964;DHT22;5534;48.784;9.190;2022-07-06T01:12:47;22.10;91.60
10964;DHT22;5534;48.784;9.190;2022-07-06T01:15:15;22.00;91.60
10964;DHT22;5534;48.784;9.190;2022-07-06T01:17:42;22.00;91.70
10964;DHT22;5534;48.784;9.190;2022-07-06T01:22:35;21.90;91.70
10964;DHT22;5534;48.784;9.190;2022-07-06T01:25:01;21.80;91.90
10964;DHT22;5534;48.784;9.190;2022-07-06T01:27:27;21.80;92.10
10964;DHT22;5534;48.784;9.190;2022-07-06T01:29:53;21.80;91.90
10964;DHT22;5534;48.784;9.190;2022-07-06T01:32:19;21.60;92.20
10964;DHT22;5534;48.784;9.190;2022-07-06T01:34:44;21.50;92.40
10964;DHT22;5534;48.784;9.190;2022-07-06T01:37:10;21.50;92.20
10964;DHT22;5534;48.784;9.190;2022-07-06T01:39:36;21.50;92.50
10964;DHT22;5534;48.784;9.190;2022-07-06T01:42:02;21.50;92.10
10964;DHT22;5534;48.784;9.190;2022-07-06T01:44:28;21.50;92.30
10964;DHT22;5534;48.784;9.190;2022-07-06T01:46:54;21.50;92.30
10964;DHT22;5534;48.784;9.190;2022-07-06T01:49:20;21.40;92.60
10964;DHT22;5534;48.784;9.190;2022-07-06T01:51:46;21.30;92.60
10964;DHT22;5534;48.784;9.190;2022-07-06T01:54:12;21.20;92.90
10964;DHT22;5534;48.784;9.190;2022-07-06T01:56:38;21.20;92.90
10964;DHT22;5534;48.784;9.190;2022-07-06T01:59:03;21.30;92.80
10964;DHT22;5534;48.784;9.190;2022-07-06T02:01:29;21.20;92.60
10964;DHT22;5534;48.784;9.190;2022-07-06T02:03:58;21.20;92.80
10964;DHT22;5534;48.784;9.190;2022-07-06T02:06:24;21.10;92.90
10964;DHT22;5534;48.784;9.190;2022-07-06T02:08:50;21.00;93.20
10964;DHT22;5534;48.784;9.190;2022-07-06T02:11:17;21.00;93.00
10964;DHT22;5534;48.784;9.190;2022-07-06T02:13:43;21.00;93.10
10964;DHT22;5534;48.784;9.190;2022-07-06T02:16:09;21.00;93.20
10964;DHT22;5534;48.784;9.190;2022-07-06T02:18:34;21.10;93.20
10964;DHT22;5534;48.784;9.190;2022-07-06T02:21:00;21.10;93.00
10964;DHT22;5534;48.784;9.190;2022-07-06T02:23:29;20.90;93.40
10964;DHT22;5534;48.784;9.190;2022-07-06T02:25:55;20.80;93.50
10964;DHT22;5534;48.784;9.190;2022-07-06T02:28:20;20.80;93.70
10964;DHT22;5534;48.784;9.190;2022-07-06T02:30:46;20.70;94.00
10964;DHT22;5534;48.784;9.190;2022-07-06T02:33:12;20.60;94.20
10964;DHT22;5534;48.784;9.190;2022-07-06T02:35:38;20.70;94.10
10964;DHT22;5534;48.784;9.190;2022-07-06T02:38:08;20.80;94.10
10964;DHT22;5534;48.784;9.190;2022-07-06T02:40:34;20.60;94.10
10964;DHT22;5534;48.784;9.190;2022-07-06T02:42:59;20.70;94.10
10964;DHT22;5534;48.784;9.190;2022-07-06T02:45:25;20.60;94.30
10964;DHT22;5534;48.784;9.190;2022-07-06T02:47:51;20.60;94.50
10964;DHT22;5534;48.784;9.190;2022-07-06T02:50:18;20.70;94.60
10964;DHT22;5534;48.784;9.190;2022-07-06T02:52:44;20.70;94.50
10964;DHT22;5534;48.784;9.190;2022-07-06T02:55:10;20.70;94.50
10964;DHT22;5534;48.784;9.190;2022-07-06T02:57:35;20.80;94.60
10964;DHT22;5534;48.784;9.190;2022-07-06T03:00:01;20.50;94.80
10964;DHT22;5534;48.784;9.190;2022-07-06T03:02:27;20.40;95.20
10964;DHT22;5534;48.784;9.190;2022-07-06T03:04:53;20.50;95.30
10964;DHT22;5534;48.784;9.190;2022-07-06T03:07:19;20.40;95.40
10964;DHT22;5534;48.784;9.190;2022-07-06T03:09:45;20.50;95.40
10964;DHT22;5534;48.784;9.190;2022-07-06T03:12:11;20.50;95.30
10964;DHT22;5534;48.784;9.190;2022-07-06T03:14:37;20.30;95.80
10964;DHT22;5534;48.784;9.190;2022-07-06T03:17:03;20.50;95.60
10964;DHT22;5534;48.784;9.190;2022-07-06T03:19:29;20.40;95.80
10964;DHT22;5534;48.784;9.190;2022-07-06T03:21:54;20.40;95.80
10964;DHT22;5534;48.784;9.190;2022-07-06T03:24:20;20.40;96.00
10964;DHT22;5534;48.784;9.190;2022-07-06T03:26:46;20.60;95.90
10964;DHT22;5534;48.784;9.190;2022-07-06T03:29:11;20.40;96.10
10964;DHT22;5534;48.784;9.190;2022-07-06T03:31:37;20.40;96.30
10964;DHT22;5534;48.784;9.190;2022-07-06T03:34:03;20.50;96.10
10964;DHT22;5534;48.784;9.190;2022-07-06T03:36:29;20.50;96.00
10964;DHT22;5534;48.784;9.190;2022-07-06T03:38:55;20.50;96.10
10964;DHT22;5534;48.784;9.190;2022-07-06T03:41:21;20.50;96.40
10964;DHT22;5534;48.784;9.190;2022-07-06T03:43:46;20.50;96.40
10964;DHT22;5534;48.784;9.190;2022-07-06T03:46:12;20.40;96.40
10964;DHT22;5534;48.784;9.190;2022-07-06T03:48:38;20.40;96.60
10964;DHT22;5534;48.784;9.190;2022-07-06T03:51:03;20.50;96.60
10964;DHT22;5534;48.784;9.190;2022-07-06T03:53:30;20.40;96.70
10964;DHT22;5534;48.784;9.190;2022-07-06T03:55:56;20.50;96.70
10964;DHT22;5534;48.784;9.190;2022-07-06T03:58:40;20.40;96.50
10964;DHT22;5534;48.784;9.190;2022-07-06T04:01:06;20.20;96.90
10964;DHT22;5534;48.784;9.190;2022-07-06T04:03:32;20.10;97.30
10964;DHT22;5534;48.784;9.190;2022-07-06T04:05:57;20.10;97.50
10964;DHT22;5534;48.784;9.190;2022-07-06T04:08:23;20.30;97.30
10964;DHT22;5534;48.784;9.190;2022-07-06T04:10:49;20.20;97.80
10964;DHT22;5534;48.784;9.190;2022-07-06T04:13:15;20.20;97.40
10964;DHT22;5534;48.784;9.190;2022-07-06T04:15:40;20.20;97.80
10964;DHT22;5534;48.784;9.190;2022-07-06T04:18:06;20.30;97.50
10964;DHT22;5534;48.784;9.190;2022-07-06T04:20:32;20.30;97.50
10964;DHT22;5534;48.784;9.190;2022-07-06T04:22:59;20.20;97.80
10964;DHT22;5534;48.784;9.190;2022-07-06T04:25:25;20.10;98.10
10964;DHT22;5534;48.784;9.190;2022-07-06T04:27:51;20.20;98.20
10964;DHT22;5534;48.784;9.190;2022-07-06T04:30:17;20.20;98.40
10964;DHT22;5534;48.784;9.190;2022-07-06T04:32:43;20.00;98.60
10964;DHT22;5534;48.784;9.190;2022-07-06T04:35:09;19.90;99.10
10964;DHT22;5534;48.784;9.190;2022-07-06T04:37:35;20.00;99.10
10964;DHT22;5534;48.784;9.190;2022-07-06T04:40:01;19.90;99.20
10964;DHT22;5534;48.784;9.190;2022-07-06T04:42:27;19.90;99.70
10964;DHT22;5534;48.784;9.190;2022-07-06T04:44:52;19.90;99.80
10964;DHT22;5534;48.784;9.190;2022-07-06T04:47:18;20.10;99.70
10964;DHT22;5534;48.784;9.190;2022-07-06T04:49:44;20.10;99.80
10964;DHT22;5534;48.784;9.190;2022-07-06T04:52:10;20.00;99.90
10964;DHT22;5534;48.784;9.190;2022-07-06T04:54:35;19.80;99.90
10964;DHT22;5534;48.784;9.190;2022-07-06T04:57:01;19.50;99.90
10964;DHT22;5534;48.784;9.190;2022-07-06T04:59:27;19.60;99.90
10964;DHT22;5534;48.784;9.190;2022-07-06T05:01:53;19.80;99.90
10964;DHT22;5534;48.784;9.190;2022-07-06T05:04:19;19.80;99.90
10964;DHT22;5534;48.784;9.190;2022-07-06T05:06:45;19.90;99.90
10964;DHT22;5534;48.784;9.190;2022-07-06T05:09:12;20.00;99.90
10964;DHT22;5534;48.784;9.190;2022-07-06T05:11:38;19.70;99.90
10964;DHT22;5534;48.784;9.190;2022-07-06T05:14:05;19.70;99.90
10964;DHT22;5534;48.784;9.190;2022-07-06T05:16:31;19.60;99.90
10964;DHT22;5534;48.784;9.190;2022-07-06T05:18:57;19.60;99.90
10964;DHT22;5534;48.784;9.190;2022-07-06T05:21:23;19.80;99.90
10964;DHT22;5534;48.784;9.190;2022-07-06T05:23:49;19.90;99.90
10964;DHT22;5534;48.784;9.190;2022-07-06T05:26:15;20.00;99.90
10964;DHT22;5534;48.784;9.190;2022-07-06T05:28:40;19.90;99.90
10964;DHT22;5534;48.784;9.190;2022-07-06T05:31:06;20.00;99.90
10964;DHT22;5534;48.784;9.190;2022-07-06T05:33:32;20.10;99.90
10964;DHT22;5534;48.784;9.190;2022-07-06T05:35:58;20.10;99.90
10964;DHT22;5534;48.784;9.190;2022-07-06T05:38:24;20.20;99.90
10964;DHT22;5534;48.784;9.190;2022-07-06T05:40:50;20.20;99.90
10964;DHT22;5534;48.784;9.190;2022-07-06T05:43:16;20.10;99.90
10964;DHT22;5534;48.784;9.190;2022-07-06T05:45:43;20.00;99.90
10964;DHT22;5534;48.784;9.190;2022-07-06T05:48:09;19.90;99.90
10964;DHT22;5534;48.784;9.190;2022-07-06T05:51:13;19.80;99.90
10964;DHT22;5534;48.784;9.190;2022-07-06T05:53:38;19.90;99.90
10964;DHT22;5534;48.784;9.190;2022-07-06T05:56:04;20.00;99.90
10964;DHT22;5534;48.784;9.190;2022-07-06T05:58:32;19.90;99.90
10964;DHT22;5534;48.784;9.190;2022-07-06T06:00:57;19.90;99.90
10964;DHT22;5534;48.784;9.190;2022-07-06T06:03:23;19.90;99.90
10964;DHT22;5534;48.784;9.190;2022-07-06T06:05:50;19.90;99.90
10964;DHT22;5534;48.784;9.190;2022-07-06T06:08:16;19.80;99.90
10964;DHT22;5534;48.784;9.190;2022-07-06T06:10:41;19.90;99.90
10964;DHT22;5534;48.784;9.190;2022-07-06T06:13:07;19.90;99.90
10964;DHT22;5534;48.784;9.190;2022-07-06T06:15:34;19.90;99.90
10964;DHT22;5534;48.784;9.190;2022-07-06T06:18:02;20.10;99.90
10964;DHT22;5534;48.784;9.190;2022-07-06T06:20:29;20.60;99.90
10964;DHT22;5534;48.784;9.190;2022-07-06T06:22:57;21.00;99.90
10964;DHT22;5534;48.784;9.190;2022-07-06T06:25:51;21.40;99.90
10964;DHT22;5534;48.784;9.190;2022-07-06T06:28:17;21.70;99.90
10964;DHT22;5534;48.784;9.190;2022-07-06T06:30:43;22.10;99.90
10964;DHT22;5534;48.784;9.190;2022-07-06T06:33:13;22.60;98.90
10964;DHT22;5534;48.784;9.190;2022-07-06T06:35:50;22.90;98.10
10964;DHT22;5534;48.784;9.190;2022-07-06T06:38:17;22.90;97.70
10964;DHT22;5534;48.784;9.190;2022-07-06T06:40:43;22.50;98.00
10964;DHT22;5534;48.784;9.190;2022-07-06T06:43:09;22.10;98.50
10964;DHT22;5534;48.784;9.190;2022-07-06T06:45:35;21.90;98.90
10964;DHT22;5534;48.784;9.190;2022-07-06T06:48:01;22.40;98.30
10964;DHT22;5534;48.784;9.190;2022-07-06T06:50:28;23.00;97.50
10964;DHT22;5534;48.784;9.190;2022-07-06T06:52:56;23.40;96.80
10964;DHT22;5534;48.784;9.190;2022-07-06T06:55:23;23.70;96.10
10964;DHT22;5534;48.784;9.190;2022-07-06T06:57:48;23.50;96.20
10964;DHT22;5534;48.784;9.190;2022-07-06T07:00:15;23.70;96.00
10964;DHT22;5534;48.784;9.190;2022-07-06T07:02:41;23.50;96.10
10964;DHT22;5534;48.784;9.190;2022-07-06T07:05:07;23.70;95.90
10964;DHT22;5534;48.784;9.190;2022-07-06T07:07:33;24.10;95.60
10964;DHT22;5534;48.784;9.190;2022-07-06T07:09:59;24.30;94.30
10964;DHT22;5534;48.784;9.190;2022-07-06T07:12:25;24.10;94.80
10964;DHT22;5534;48.784;9.190;2022-07-06T07:14:50;24.50;94.60
10964;DHT22;5534;48.784;9.190;2022-07-06T07:17:17;24.80;93.90
10964;DHT22;5534;48.784;9.190;2022-07-06T07:19:44;24.70;93.50
10964;DHT22;5534;48.784;9.190;2022-07-06T07:22:10;24.70;93.60
10964;DHT22;5534;48.784;9.190;2022-07-06T07:24:36;24.80;93.40
10964;DHT22;5534;48.784;9.190;2022-07-06T07:27:01;24.70;93.30
10964;DHT22;5534;48.784;9.190;2022-07-06T07:29:27;24.70;93.20
10964;DHT22;5534;48.784;9.190;2022-07-06T07:31:53;24.70;93.00
10964;DHT22;5534;48.784;9.190;2022-07-06T07:34:19;24.70;93.00
10964;DHT22;5534;48.784;9.190;2022-07-06T07:36:44;25.00;92.70
10964;DHT22;5534;48.784;9.190;2022-07-06T07:39:10;25.00;92.60
10964;DHT22;5534;48.784;9.190;2022-07-06T07:41:36;25.30;92.50
10964;DHT22;5534;48.784;9.190;2022-07-06T07:44:02;25.50;92.10
10964;DHT22;5534;48.784;9.190;2022-07-06T07:46:28;25.30;92.00
10964;DHT22;5534;48.784;9.190;2022-07-06T07:48:54;25.30;91.90
10964;DHT22;5534;48.784;9.190;2022-07-06T07:51:19;25.60;91.60
10964;DHT22;5534;48.784;9.190;2022-07-06T07:53:45;26.00;91.30
10964;DHT22;5534;48.784;9.190;2022-07-06T07:56:11;26.30;90.90
10964;DHT22;5534;48.784;9.190;2022-07-06T07:58:39;25.90;90.90
10964;DHT22;5534;48.784;9.190;2022-07-06T08:01:06;25.30;91.60
10964;DHT22;5534;48.784;9.190;2022-07-06T08:03:32;25.60;91.40
10964;DHT22;5534;48.784;9.190;2022-07-06T08:05:58;25.80;91.30
10964;DHT22;5534;48.784;9.190;2022-07-06T08:08:25;25.80;91.30
10964;DHT22;5534;48.784;9.190;2022-07-06T08:10:51;25.50;91.90
10964;DHT22;5534;48.784;9.190;2022-07-06T08:13:17;26.50;91.10
10964;DHT22;5534;48.784;9.190;2022-07-06T08:15:43;26.80;90.70
10964;DHT22;5534;48.784;9.190;2022-07-06T08:18:09;26.40;90.80
10964;DHT22;5534;48.784;9.190;2022-07-06T08:20:37;26.40;90.80
10964;DHT22;5534;48.784;9.190;2022-07-06T08:23:04;26.40;90.80
10964;DHT22;5534;48.784;9.190;2022-07-06T08:25:31;26.80;90.60
10964;DHT22;5534;48.784;9.190;2022-07-06T08:27:57;27.10;89.60
10964;DHT22;5534;48.784;9.190;2022-07-06T08:30:23;26.90;89.80
10964;DHT22;5534;48.784;9.190;2022-07-06T08:32:49;26.60;90.20
10964;DHT22;5534;48.784;9.190;2022-07-06T08:35:17;26.50;90.50
10964;DHT22;5534;48.784;9.190;2022-07-06T08:37:43;26.30;90.40
10964;DHT22;5534;48.784;9.190;2022-07-06T08:40:09;26.00;90.70
10964;DHT22;5534;48.784;9.190;2022-07-06T08:42:36;26.10;90.70
10964;DHT22;5534;48.784;9.190;2022-07-06T08:45:05;26.20;90.80
10964;DHT22;5534;48.784;9.190;2022-07-06T08:47:31;26.40;90.60
10964;DHT22;5534;48.784;9.190;2022-07-06T08:49:58;26.50;90.20
10964;DHT22;5534;48.784;9.190;2022-07-06T08:52:24;26.40;90.10
10964;DHT22;5534;48.784;9.190;2022-07-06T08:54:51;26.30;90.40
10964;DHT22;5534;48.784;9.190;2022-07-06T08:57:17;25.80;90.70
10964;DHT22;5534;48.784;9.190;2022-07-06T08:59:44;25.70;91.00
10964;DHT22;5534;48.784;9.190;2022-07-06T09:02:11;25.50;90.90
10964;DHT22;5534;48.784;9.190;2022-07-06T09:04:37;25.50;91.20
10964;DHT22;5534;48.784;9.190;2022-07-06T09:07:04;25.50;91.40
10964;DHT22;5534;48.784;9.190;2022-07-06T09:09:30;25.20;91.70
10964;DHT22;5534;48.784;9.190;2022-07-06T09:11:56;25.10;92.10
10964;DHT22;5534;48.784;9.190;2022-07-06T09:14:22;25.60;91.80
10964;DHT22;5534;48.784;9.190;2022-07-06T09:16:52;25.60;91.40
10964;DHT22;5534;48.784;9.190;2022-07-06T09:19:27;25.30;91.90
10964;DHT22;5534;48.784;9.190;2022-07-06T09:21:53;25.30;92.00
10964;DHT22;5534;48.784;9.190;2022-07-06T09:24:19;25.30;91.90
10964;DHT22;5534;48.784;9.190;2022-07-06T09:26:47;25.30;92.00
10964;DHT22;5534;48.784;9.190;2022-07-06T09:29:13;25.50;91.40
10964;DHT22;5534;48.784;9.190;2022-07-06T09:31:40;25.40;91.30
10964;DHT22;5534;48.784;9.190;2022-07-06T09:34:07;24.90;91.40
10964;DHT22;5534;48.784;9.190;2022-07-06T09:36:46;24.70;91.60
10964;DHT22;5534;48.784;9.190;2022-07-06T09:41:41;24.90;91.60
10964;DHT22;5534;48.784;9.190;2022-07-06T09:44:08;25.00;91.50
10964;DHT22;5534;48.784;9.190;2022-07-06T09:46:41;25.20;91.40
10964;DHT22;5534;48.784;9.190;2022-07-06T09:49:07;24.80;91.80
10964;DHT22;5534;48.784;9.190;2022-07-06T09:51:38;24.80;91.90
10964;DHT22;5534;48.784;9.190;2022-07-06T09:54:06;25.10;92.00
10964;DHT22;5534;48.784;9.190;2022-07-06T09:56:40;25.20;91.70
10964;DHT22;5534;48.784;9.190;2022-07-06T09:59:14;25.60;91.30
10964;DHT22;5534;48.784;9.190;2022-07-06T10:01:41;25.50;90.90
10964;DHT22;5534;48.784;9.190;2022-07-06T10:04:10;25.30;91.10
10964;DHT22;5534;48.784;9.190;2022-07-06T10:06:38;25.10;91.20
10964;DHT22;5534;48.784;9.190;2022-07-06T10:09:07;24.80;91.50
10964;DHT22;5534;48.784;9.190;2022-07-06T10:11:37;24.50;91.70
10964;DHT22;5534;48.784;9.190;2022-07-06T10:14:05;24.70;91.50
10964;DHT22;5534;48.784;9.190;2022-07-06T10:16:37;24.70;91.80
10964;DHT22;5534;48.784;9.190;2022-07-06T10:19:07;24.80;91.90
10964;DHT22;5534;48.784;9.190;2022-07-06T10:21:37;24.80;91.70
10964;DHT22;5534;48.784;9.190;2022-07-06T10:24:05;24.60;91.40
10964;DHT22;5534;48.784;9.190;2022-07-06T10:26:33;24.30;91.60
10964;DHT22;5534;48.784;9.190;2022-07-06T10:29:00;24.50;91.60
10964;DHT22;5534;48.784;9.190;2022-07-06T10:31:27;24.70;91.80
10964;DHT22;5534;48.784;9.190;2022-07-06T10:33:59;24.80;91.80
10964;DHT22;5534;48.784;9.190;2022-07-06T10:36:25;25.00;91.90
10964;DHT22;5534;48.784;9.190;2022-07-06T10:38:52;25.10;91.90
10964;DHT22;5534;48.784;9.190;2022-07-06T10:41:30;25.30;91.90
10964;DHT22;5534;48.784;9.190;2022-07-06T10:43:57;25.60;91.40
10964;DHT22;5534;48.784;9.190;2022-07-06T10:46:28;25.00;91.40
10964;DHT22;5534;48.784;9.190;2022-07-06T10:48:54;24.70;91.90
10964;DHT22;5534;48.784;9.190;2022-07-06T10:51:25;24.40;92.20
10964;DHT22;5534;48.784;9.190;2022-07-06T10:54:04;24.20;92.50
10964;DHT22;5534;48.784;9.190;2022-07-06T10:59:08;24.40;92.40
10964;DHT22;5534;48.784;9.190;2022-07-06T11:01:35;24.30;92.50
10964;DHT22;5534;48.784;9.190;2022-07-06T11:06:33;24.40;92.40
10964;DHT22;5534;48.784;9.190;2022-07-06T11:09:09;24.40;92.20
10964;DHT22;5534;48.784;9.190;2022-07-06T11:14:06;24.20;92.60
10964;DHT22;5534;48.784;9.190;2022-07-06T11:16:33;24.20;92.50
10964;DHT22;5534;48.784;9.190;2022-07-06T11:19:12;24.20;92.00
10964;DHT22;5534;48.784;9.190;2022-07-06T11:21:40;24.20;92.60
10964;DHT22;5534;48.784;9.190;2022-07-06T11:24:09;24.20;92.80
10964;DHT22;5534;48.784;9.190;2022-07-06T11:26:36;24.20;93.10
10964;DHT22;5534;48.784;9.190;2022-07-06T11:29:06;24.10;93.00
10964;DHT22;5534;48.784;9.190;2022-07-06T11:31:38;24.10;92.90
10964;DHT22;5534;48.784;9.190;2022-07-06T11:34:05;24.10;92.90
10964;DHT22;5534;48.784;9.190;2022-07-06T11:36:32;24.20;93.00
10964;DHT22;5534;48.784;9.190;2022-07-06T11:38:58;24.40;92.90
10964;DHT22;5534;48.784;9.190;2022-07-06T11:41:24;24.60;93.10
10964;DHT22;5534;48.784;9.190;2022-07-06T11:43:50;24.90;92.70
10964;DHT22;5534;48.784;9.190;2022-07-06T11:46:23;25.10;92.30
10964;DHT22;5534;48.784;9.190;2022-07-06T11:48:54;25.20;92.10
10964;DHT22;5534;48.784;9.190;2022-07-06T11:51:21;25.20;91.80
10964;DHT22;5534;48.784;9.190;2022-07-06T11:53:52;25.00;92.00
10964;DHT22;5534;48.784;9.190;2022-07-06T11:56:18;24.50;92.60
10964;DHT22;5534;48.784;9.190;2022-07-06T11:58:49;24.20;92.90
10964;DHT22;5534;48.784;9.190;2022-07-06T12:01:15;24.30;93.10
10964;DHT22;5534;48.784;9.190;2022-07-06T12:03:44;24.20;93.70
10964;DHT22;5534;48.784;9.190;2022-07-06T12:06:22;24.30;93.20
10964;DHT22;5534;48.784;9.190;2022-07-06T12:08:53;24.30;93.50
10964;DHT22;5534;48.784;9.190;2022-07-06T12:11:20;24.10;93.50
10964;DHT22;5534;48.784;9.190;2022-07-06T12:13:47;24.10;93.30
10964;DHT22;5534;48.784;9.190;2022-07-06T12:16:14;24.10;93.50
10964;DHT22;5534;48.784;9.190;2022-07-06T12:18:43;24.10;93.40
10964;DHT22;5534;48.784;9.190;2022-07-06T12:21:11;24.20;93.20
10964;DHT22;5534;48.784;9.190;2022-07-06T12:23:50;24.30;93.40
10964;DHT22;5534;48.784;9.190;2022-07-06T12:26:21;24.40;93.10
10964;DHT22;5534;48.784;9.190;2022-07-06T12:29:08;24.40;93.20
10964;DHT22;5534;48.784;9.190;2022-07-06T12:31:49;24.60;93.00
10964;DHT22;5534;48.784;9.190;2022-07-06T12:34:17;24.80;92.70
10964;DHT22;5534;48.784;9.190;2022-07-06T12:39:14;24.30;93.10
10964;DHT22;5534;48.784;9.190;2022-07-06T12:44:10;24.30;93.10
10964;DHT22;5534;48.784;9.190;2022-07-06T12:46:38;24.30;93.00
10964;DHT22;5534;48.784;9.190;2022-07-06T12:49:24;24.30;93.00
10964;DHT22;5534;48.784;9.190;2022-07-06T12:54:20;24.30;93.00
10964;DHT22;5534;48.784;9.190;2022-07-06T13:02:08;25.10;91.80
10964;DHT22;5534;48.784;9.190;2022-07-06T13:04:36;25.20;91.90
10964;DHT22;5534;48.784;9.190;2022-07-06T13:07:02;24.90;91.50
10964;DHT22;5534;48.784;9.190;2022-07-06T13:09:29;24.70;91.70
10964;DHT22;5534;48.784;9.190;2022-07-06T13:11:55;24.60;92.10
10964;DHT22;5534;48.784;9.190;2022-07-06T13:14:22;24.70;92.30
10964;DHT22;5534;48.784;9.190;2022-07-06T13:16:48;24.80;92.20
10964;DHT22;5534;48.784;9.190;2022-07-06T13:19:14;25.00;91.70
10964;DHT22;5534;48.784;9.190;2022-07-06T13:21:40;24.70;91.40
10964;DHT22;5534;48.784;9.190;2022-07-06T13:24:07;24.60;91.60
10964;DHT22;5534;48.784;9.190;2022-07-06T13:26:34;24.50;91.60
10964;DHT22;5534;48.784;9.190;2022-07-06T13:29:01;24.50;91.90
10964;DHT22;5534;48.784;9.190;2022-07-06T13:31:27;24.60;91.50
10964;DHT22;5534;48.784;9.190;2022-07-06T13:33:53;24.50;91.60
10964;DHT22;5534;48.784;9.190;2022-07-06T13:36:19;24.50;91.60
10964;DHT22;5534;48.784;9.190;2022-07-06T13:38:45;24.60;91.60
10964;DHT22;5534;48.784;9.190;2022-07-06T13:41:11;24.70;91.60
10964;DHT22;5534;48.784;9.190;2022-07-06T13:43:37;24.60;91.30
10964;DHT22;5534;48.784;9.190;2022-07-06T13:46:07;24.50;91.60
10964;DHT22;5534;48.784;9.190;2022-07-06T13:48:33;24.40;92.00
10964;DHT22;5534;48.784;9.190;2022-07-06T13:50:59;24.50;91.90
10964;DHT22;5534;48.784;9.190;2022-07-06T13:53:26;24.60;91.70
10964;DHT22;5534;48.784;9.190;2022-07-06T13:55:52;24.70;91.80
10964;DHT22;5534;48.784;9.190;2022-07-06T13:58:18;24.90;91.40
10964;DHT22;5534;48.784;9.190;2022-07-06T14:00:44;25.00;91.20
10964;DHT22;5534;48.784;9.190;2022-07-06T14:03:10;24.90;90.90
10964;DHT22;5534;48.784;9.190;2022-07-06T14:05:36;24.90;91.00
10964;DHT22;5534;48.784;9.190;2022-07-06T14:08:02;25.20;90.60
10964;DHT22;5534;48.784;9.190;2022-07-06T14:10:28;25.40;90.70
10964;DHT22;5534;48.784;9.190;2022-07-06T14:12:54;25.40;90.30
10964;DHT22;5534;48.784;9.190;2022-07-06T14:15:20;25.10;90.40
10964;DHT22;5534;48.784;9.190;2022-07-06T14:17:46;25.00;90.60
10964;DHT22;5534;48.784;9.190;2022-07-06T14:20:14;25.00;90.70
10964;DHT22;5534;48.784;9.190;2022-07-06T14:22:44;25.00;90.20
10964;DHT22;5534;48.784;9.190;2022-07-06T14:25:10;25.10;90.60
10964;DHT22;5534;48.784;9.190;2022-07-06T14:27:36;25.00;90.10
10964;DHT22;5534;48.784;9.190;2022-07-06T14:30:03;25.00;90.40
10964;DHT22;5534;48.784;9.190;2022-07-06T14:32:31;25.10;90.30
10964;DHT22;5534;48.784;9.190;2022-07-06T14:34:57;25.30;89.90
10964;DHT22;5534;48.784;9.190;2022-07-06T14:37:23;25.30;89.50
10964;DHT22;5534;48.784;9.190;2022-07-06T14:39:48;25.20;90.00
10964;DHT22;5534;48.784;9.190;2022-07-06T14:42:14;25.10;90.00
10964;DHT22;5534;48.784;9.190;2022-07-06T14:44:40;25.00;89.80
10964;DHT22;5534;48.784;9.190;2022-07-06T14:47:06;25.00;90.20
10964;DHT22;5534;48.784;9.190;2022-07-06T14:49:32;25.20;89.80
10964;DHT22;5534;48.784;9.190;2022-07-06T14:51:58;25.20;89.30
10964;DHT22;5534;48.784;9.190;2022-07-06T14:54:25;25.20;89.40
10964;DHT22;5534;48.784;9.190;2022-07-06T14:56:50;25.00;90.00
10964;DHT22;5534;48.784;9.190;2022-07-06T14:59:16;24.80;90.00
10964;DHT22;5534;48.784;9.190;2022-07-06T15:01:42;24.90;89.80
10964;DHT22;5534;48.784;9.190;2022-07-06T15:04:09;24.90;89.10
10964;DHT22;5534;48.784;9.190;2022-07-06T15:06:35;24.90;89.40
10964;DHT22;5534;48.784;9.190;2022-07-06T15:09:02;24.80;89.60
10964;DHT22;5534;48.784;9.190;2022-07-06T15:11:33;24.60;89.70
10964;DHT22;5534;48.784;9.190;2022-07-06T15:13:59;24.50;90.20
10964;DHT22;5534;48.784;9.190;2022-07-06T15:16:24;24.50;90.00
10964;DHT22;5534;48.784;9.190;2022-07-06T15:18:51;24.50;90.00
10964;DHT22;5534;48.784;9.190;2022-07-06T15:21:17;24.50;89.90
10964;DHT22;5534;48.784;9.190;2022-07-06T15:23:43;24.50;89.60
10964;DHT22;5534;48.784;9.190;2022-07-06T15:26:09;24.50;89.70
10964;DHT22;5534;48.784;9.190;2022-07-06T15:28:35;24.50;89.00
10964;DHT22;5534;48.784;9.190;2022-07-06T15:31:03;24.40;89.30
10964;DHT22;5534;48.784;9.190;2022-07-06T15:33:28;24.40;88.60
10964;DHT22;5534;48.784;9.190;2022-07-06T15:35:54;24.40;89.30
10964;DHT22;5534;48.784;9.190;2022-07-06T15:38:23;24.30;89.20
10964;DHT22;5534;48.784;9.190;2022-07-06T15:40:49;24.20;89.00
10964;DHT22;5534;48.784;9.190;2022-07-06T15:43:22;24.20;89.70
10964;DHT22;5534;48.784;9.190;2022-07-06T15:45:48;24.20;89.20
10964;DHT22;5534;48.784;9.190;2022-07-06T15:48:20;24.20;89.30
10964;DHT22;5534;48.784;9.190;2022-07-06T15:50:46;24.20;89.40
10964;DHT22;5534;48.784;9.190;2022-07-06T15:53:12;24.10;90.00
10964;DHT22;5534;48.784;9.190;2022-07-06T15:55:38;24.20;89.40
10964;DHT22;5534;48.784;9.190;2022-07-06T15:58:05;24.30;89.70
10964;DHT22;5534;48.784;9.190;2022-07-06T16:00:31;24.20;88.80
10964;DHT22;5534;48.784;9.190;2022-07-06T16:02:56;24.10;88.60
10964;DHT22;5534;48.784;9.190;2022-07-06T16:05:22;24.10;88.40
10964;DHT22;5534;48.784;9.190;2022-07-06T16:07:49;24.00;87.90
10964;DHT22;5534;48.784;9.190;2022-07-06T16:10:15;23.90;87.70